Time;durP1;ratioP1;P1;durP2;ratioP2;P2;SDS_P1;SDS_P2;PMS_P1;PMS_P2;Temp;Humidity;BMP_temperature;BMP_pressure;BME280_temperature;BME280_humidity;BME280_pressure;Samples;Min_cycle;Max_cycle;Signal;HPM_P1;HPM_P2
2021/03/31 00:00:29;;;;;;;11.35;6.57;;;15.00;62.30;;;;;;4192478;28;20101;-66
2021/03/31 00:02:29;;;;;;;11.55;6.30;;;15.00;62.40;;;;;;4183025;28;20041;-66
2021/03/31 00:04:30;;;;;;;12.55;5.88;;;15.00;63.40;;;;;;4192570;28;20052;-66
2021/03/31 00:06:30;;;;;;;12.93;6.35;;;15.10;62.90;;;;;;4192678;28;20067;-65
2021/03/31 00:08:31;;;;;;;10.70;5.32;;;15.00;63.20;;;;;;4192029;28;20665;-66
2021/03/31 00:10:39;;;;;;;12.35;5.65;;;15.00;62.40;;;;;;4190976;28;20031;-66
2021/03/31 00:12:40;;;;;;;12.65;6.50;;;15.10;63.20;;;;;;4190189;28;20036;-66
2021/03/31 00:14:40;;;;;;;14.05;6.43;;;15.10;62.80;;;;;;4191162;28;20424;-66
2021/03/31 00:16:41;;;;;;;10.55;5.60;;;15.00;62.90;;;;;;4192792;28;20218;-66
2021/03/31 00:18:42;;;;;;;12.23;6.13;;;15.00;63.10;;;;;;4190926;28;20040;-66
2021/03/31 00:20:43;;;;;;;12.88;5.38;;;15.00;62.10;;;;;;4192621;28;20044;-66
2021/03/31 00:22:45;;;;;;;12.57;5.75;;;15.00;63.10;;;;;;4188187;28;20585;-66
2021/03/31 00:24:45;;;;;;;11.02;5.07;;;15.10;63.40;;;;;;4189851;28;20074;-66
2021/03/31 00:26:46;;;;;;;10.38;5.35;;;15.00;63.90;;;;;;4189134;28;20591;-66
2021/03/31 00:28:46;;;;;;;8.90;4.80;;;15.00;62.90;;;;;;4185756;28;20477;-66
2021/03/31 00:30:48;;;;;;;11.20;4.72;;;15.00;61.60;;;;;;4192626;28;20497;-66
2021/03/31 00:32:49;;;;;;;8.07;4.65;;;15.00;61.90;;;;;;4191458;28;20036;-66
2021/03/31 00:34:49;;;;;;;6.25;4.15;;;15.00;63.20;;;;;;4190018;28;20040;-66
2021/03/31 00:36:50;;;;;;;12.60;4.78;;;15.00;62.60;;;;;;4192005;28;20032;-66
2021/03/31 00:38:51;;;;;;;11.25;4.30;;;15.00;61.30;;;;;;4186428;28;20048;-65
2021/03/31 00:40:53;;;;;;;11.00;4.80;;;15.00;62.50;;;;;;4190518;28;20040;-66
2021/03/31 00:42:54;;;;;;;6.60;4.20;;;15.00;62.10;;;;;;4187977;28;20036;-66
2021/03/31 00:44:55;;;;;;;12.63;4.82;;;15.00;62.90;;;;;;4191537;28;20136;-66
2021/03/31 00:46:55;;;;;;;12.73;4.97;;;15.10;63.30;;;;;;4192689;28;20035;-66
2021/03/31 00:48:56;;;;;;;8.88;4.70;;;15.10;62.80;;;;;;4192295;28;20029;-66
2021/03/31 00:50:59;;;;;;;8.00;4.18;;;15.10;62.80;;;;;;4192134;28;20078;-66
2021/03/31 00:53:01;;;;;;;7.88;4.30;;;15.10;62.90;;;;;;4191417;28;20098;-66
2021/03/31 00:55:03;;;;;;;8.33;4.33;;;15.10;62.80;;;;;;4170313;28;20103;-66
2021/03/31 00:57:04;;;;;;;6.45;4.03;;;15.10;62.90;;;;;;4191936;28;20279;-66
2021/03/31 00:59:05;;;;;;;9.02;4.28;;;15.10;63.80;;;;;;4187112;28;20055;-66
2021/03/31 01:01:07;;;;;;;10.40;3.78;;;15.10;63.70;;;;;;4192224;28;20036;-66
2021/03/31 01:03:08;;;;;;;6.70;3.88;;;15.10;65.50;;;;;;4184604;28;20048;-66
2021/03/31 01:05:19;;;;;;;9.55;4.60;;;15.10;63.60;;;;;;4190632;28;20060;-66
2021/03/31 01:07:20;;;;;;;8.32;4.43;;;15.10;63.00;;;;;;4192284;28;20029;-66
2021/03/31 01:09:20;;;;;;;12.38;4.35;;;15.10;65.50;;;;;;4190385;28;20626;-66
2021/03/31 01:11:32;;;;;;;7.45;4.15;;;15.10;65.70;;;;;;4192377;28;20032;-66
2021/03/31 01:13:47;;;;;;;7.68;3.67;;;15.10;65.60;;;;;;4184464;28;20036;-66
2021/03/31 01:15:59;;;;;;;7.85;4.03;;;15.00;65.90;;;;;;4188860;28;20036;-66
2021/03/31 01:18:10;;;;;;;9.03;4.33;;;14.90;66.20;;;;;;4184820;28;20492;-66
2021/03/31 01:20:53;;;;;;;8.70;4.03;;;14.90;65.90;;;;;;4191828;28;20123;-66
2021/03/31 01:23:24;;;;;;;6.10;3.75;;;14.90;66.90;;;;;;4168767;28;20037;-66
2021/03/31 01:25:36;;;;;;;9.65;4.50;;;14.90;66.60;;;;;;4181313;28;20512;-66
2021/03/31 01:27:52;;;;;;;9.27;4.20;;;14.80;67.90;;;;;;4177070;28;20119;-66
2021/03/31 01:30:17;;;;;;;7.85;3.67;;;14.80;67.00;;;;;;4173142;28;20021;-66
2021/03/31 01:32:36;;;;;;;8.27;3.97;;;14.80;67.40;;;;;;4183242;28;20063;-66
2021/03/31 01:34:40;;;;;;;7.70;3.80;;;14.70;67.00;;;;;;4172792;28;20037;-66
2021/03/31 01:36:44;;;;;;;7.70;4.43;;;14.80;67.20;;;;;;4195129;28;20044;-66
2021/03/31 01:38:51;;;;;;;7.25;3.80;;;14.70;67.10;;;;;;4183408;28;20603;-65
2021/03/31 01:40:54;;;;;;;7.40;3.92;;;14.70;67.20;;;;;;4176548;28;20049;-66
2021/03/31 01:42:59;;;;;;;8.85;3.70;;;14.60;67.80;;;;;;4173207;28;20033;-66
2021/03/31 01:45:04;;;;;;;5.93;3.45;;;14.60;67.90;;;;;;4174219;28;20036;-66
2021/03/31 01:47:05;;;;;;;8.02;4.28;;;14.60;67.80;;;;;;4181311;28;20049;-66
2021/03/31 01:49:08;;;;;;;7.82;4.10;;;14.60;67.70;;;;;;4174752;28;20037;-66
2021/03/31 01:51:11;;;;;;;9.52;4.18;;;14.50;68.70;;;;;;4176691;28;20044;-66
2021/03/31 01:53:12;;;;;;;8.18;4.38;;;14.50;68.60;;;;;;4186019;28;20116;-66
2021/03/31 01:55:15;;;;;;;7.68;4.28;;;14.50;74.00;;;;;;4177553;28;20385;-66
2021/03/31 01:57:17;;;;;;;7.55;4.10;;;14.40;70.30;;;;;;4177712;28;20091;-66
2021/03/31 01:59:19;;;;;;;9.90;4.35;;;14.40;74.70;;;;;;4177626;28;20029;-66
2021/03/31 02:01:21;;;;;;;9.52;4.22;;;14.40;71.50;;;;;;4192031;28;20123;-66
2021/03/31 02:03:25;;;;;;;9.60;4.63;;;14.30;70.90;;;;;;4172258;28;20499;-66
2021/03/31 02:05:28;;;;;;;7.85;4.35;;;14.30;71.60;;;;;;4186407;28;20040;-66
2021/03/31 02:07:29;;;;;;;10.63;5.00;;;14.20;69.80;;;;;;4191892;28;20043;-66
2021/03/31 02:09:42;;;;;;;9.70;4.55;;;14.20;71.60;;;;;;4166842;28;20068;-66
2021/03/31 02:11:44;;;;;;;8.57;4.50;;;14.10;75.30;;;;;;4168179;28;20037;-66
2021/03/31 02:13:47;;;;;;;12.27;4.10;;;14.10;74.90;;;;;;4188539;28;20031;-66
2021/03/31 02:15:50;;;;;;;9.75;4.10;;;14.10;74.80;;;;;;4192169;28;20063;-66
2021/03/31 02:17:51;;;;;;;;;;;14.10;74.20;;;;;;4177957;28;20159;-66
2021/03/31 02:19:53;;;;;;;6.22;3.92;;;14.10;76.80;;;;;;4177701;28;19913;-66
2021/03/31 02:21:54;;;;;;;5.80;4.10;;;14.10;76.40;;;;;;4177766;28;20037;-66
2021/03/31 02:23:56;;;;;;;9.05;4.53;;;14.10;77.70;;;;;;4175208;28;20120;-66
2021/03/31 02:25:58;;;;;;;10.63;4.55;;;14.10;77.00;;;;;;4178196;28;20064;-66
2021/03/31 02:27:59;;;;;;;6.97;4.00;;;14.20;78.20;;;;;;4186221;28;20492;-66
2021/03/31 02:30:00;;;;;;;11.15;4.28;;;14.20;78.30;;;;;;4175987;28;20083;-66
2021/03/31 02:32:01;;;;;;;7.93;4.63;;;14.20;77.80;;;;;;4177452;28;20033;-66
2021/03/31 02:34:05;;;;;;;9.77;4.30;;;14.20;80.00;;;;;;4185412;28;20048;-66
2021/03/31 02:36:06;;;;;;;8.10;4.18;;;14.10;78.70;;;;;;4177743;28;20599;-66
2021/03/31 02:38:08;;;;;;;8.93;4.25;;;14.10;77.60;;;;;;4182391;28;20113;-66
2021/03/31 02:40:10;;;;;;;9.88;4.63;;;14.10;77.30;;;;;;4176215;28;20048;-66
2021/03/31 02:42:14;;;;;;;9.97;4.53;;;14.10;78.40;;;;;;4182289;28;20542;-66
2021/03/31 02:44:16;;;;;;;8.52;4.28;;;14.10;77.40;;;;;;4179184;28;20644;-66
2021/03/31 02:46:20;;;;;;;9.90;4.20;;;14.00;77.60;;;;;;4186506;28;20032;-66
2021/03/31 02:48:22;;;;;;;6.25;3.58;;;14.10;77.80;;;;;;4180066;28;20074;-66
2021/03/31 02:50:25;;;;;;;8.35;4.07;;;14.10;80.10;;;;;;4177553;28;20033;-66
2021/03/31 02:52:26;;;;;;;;;;;14.10;78.40;;;;;;4176159;28;20083;-66
2021/03/31 02:54:28;;;;;;;9.70;4.65;;;14.10;79.50;;;;;;4176866;28;19917;-66
2021/03/31 02:56:30;;;;;;;9.68;4.45;;;14.00;80.70;;;;;;4184319;28;20116;-66
2021/03/31 02:58:31;;;;;;;13.10;5.18;;;14.00;81.30;;;;;;4167479;28;20045;-66
2021/03/31 03:00:33;;;;;;;12.05;4.90;;;13.90;83.00;;;;;;4171633;28;20485;-66
2021/03/31 03:02:36;;;;;;;9.35;4.65;;;13.90;81.40;;;;;;4173558;28;20079;-66
2021/03/31 03:04:38;;;;;;;8.23;4.38;;;13.80;79.70;;;;;;4170690;28;20427;-66
2021/03/31 03:06:39;;;;;;;10.02;4.28;;;13.80;78.90;;;;;;4169889;28;20119;-66
2021/03/31 03:08:40;;;;;;;10.68;5.03;;;13.80;81.50;;;;;;4171544;28;20068;-66
2021/03/31 03:10:41;;;;;;;9.63;4.63;;;13.70;79.80;;;;;;4172143;28;20065;-66
2021/03/31 03:12:55;;;;;;;10.90;4.90;;;13.70;82.40;;;;;;4170640;28;20033;-66
2021/03/31 03:14:57;;;;;;;9.38;4.18;;;13.70;87.60;;;;;;4172654;28;20048;-66
2021/03/31 03:16:58;;;;;;;7.72;4.57;;;13.70;83.80;;;;;;4176813;28;20443;-66
2021/03/31 03:18:59;;;;;;;9.75;4.60;;;13.70;82.40;;;;;;4172262;28;20086;-66
2021/03/31 03:21:00;;;;;;;9.15;4.50;;;13.60;83.60;;;;;;4173402;28;20041;-66
2021/03/31 03:23:02;;;;;;;9.80;4.53;;;13.60;83.30;;;;;;4169455;28;20086;-66
2021/03/31 03:25:04;;;;;;;9.35;4.60;;;13.60;81.60;;;;;;4169122;28;20037;-66
2021/03/31 03:27:05;;;;;;;8.57;4.40;;;13.60;81.20;;;;;;4170645;28;20033;-66
2021/03/31 03:29:10;;;;;;;11.75;4.35;;;13.60;80.70;;;;;;4171116;28;20083;-66
2021/03/31 03:31:11;;;;;;;10.65;4.40;;;13.60;81.40;;;;;;4170915;28;20039;-66
2021/03/31 03:33:12;;;;;;;7.72;4.30;;;13.60;82.40;;;;;;4154949;28;20038;-66
2021/03/31 03:35:15;;;;;;;10.40;4.85;;;13.60;82.20;;;;;;4170844;28;20040;-66
2021/03/31 03:37:19;;;;;;;7.40;4.63;;;13.60;81.90;;;;;;4170119;28;20083;-66
2021/03/31 03:39:19;;;;;;;6.82;3.92;;;13.60;82.00;;;;;;4170087;28;20937;-66
2021/03/31 03:41:20;;;;;;;7.57;4.20;;;13.60;83.60;;;;;;4173706;28;20047;-66
2021/03/31 03:43:21;;;;;;;10.93;4.40;;;13.60;81.70;;;;;;4169796;28;20402;-66
2021/03/31 03:45:23;;;;;;;9.88;4.80;;;13.60;82.20;;;;;;4171802;28;20057;-66
2021/03/31 03:47:24;;;;;;;10.25;4.82;;;13.60;82.70;;;;;;4170595;28;20481;-66
2021/03/31 03:49:29;;;;;;;9.48;4.97;;;13.50;80.80;;;;;;4171830;28;20052;-66
2021/03/31 03:51:33;;;;;;;8.35;4.45;;;13.50;81.20;;;;;;4168620;28;20045;-66
2021/03/31 03:53:34;;;;;;;10.40;4.55;;;13.60;82.20;;;;;;4169653;28;20049;-66
2021/03/31 03:55:36;;;;;;;7.53;4.43;;;13.50;83.10;;;;;;4172096;28;20103;-66
2021/03/31 03:57:37;;;;;;;10.27;4.47;;;13.50;82.40;;;;;;4169676;28;20046;-66
2021/03/31 03:59:37;;;;;;;12.13;5.10;;;13.50;82.10;;;;;;4171660;28;20048;-66
2021/03/31 04:01:38;;;;;;;10.18;4.72;;;13.50;84.80;;;;;;4170573;28;20037;-66
2021/03/31 04:03:39;;;;;;;8.75;4.72;;;13.50;84.90;;;;;;4171134;28;20523;-66
2021/03/31 04:05:39;;;;;;;8.60;4.80;;;13.50;84.00;;;;;;4171259;28;20025;-66
2021/03/31 04:07:40;;;;;;;8.93;4.70;;;13.50;84.50;;;;;;4169968;28;20123;-66
2021/03/31 04:09:44;;;;;;;8.00;4.43;;;13.50;82.90;;;;;;4170392;28;20045;-66
2021/03/31 04:11:47;;;;;;;7.18;4.55;;;13.40;84.90;;;;;;4173170;28;20086;-66
2021/03/31 04:13:48;;;;;;;11.95;4.95;;;13.50;84.50;;;;;;4169926;28;20037;-66
2021/03/31 04:15:51;;;;;;;9.38;4.57;;;13.50;86.20;;;;;;4171005;28;20067;-66
2021/03/31 04:17:53;;;;;;;9.82;4.72;;;13.50;84.30;;;;;;4173052;28;20102;-66
2021/03/31 04:19:55;;;;;;;8.40;4.25;;;13.40;84.60;;;;;;4152003;28;20033;-66
2021/03/31 04:21:55;;;;;;;7.75;4.55;;;13.40;83.50;;;;;;4168322;28;20037;-66
2021/03/31 04:23:58;;;;;;;10.80;5.47;;;13.40;84.40;;;;;;4170785;28;20547;-66
2021/03/31 04:25:59;;;;;;;;;;;13.40;82.00;;;;;;4171593;28;20071;-66
2021/03/31 04:28:03;;;;;;;9.50;5.30;;;13.40;85.80;;;;;;4170161;28;19944;-66
2021/03/31 04:30:11;;;;;;;9.25;5.20;;;13.30;83.00;;;;;;4171438;28;20044;-66
2021/03/31 04:32:17;;;;;;;9.98;6.05;;;13.30;84.30;;;;;;4168912;28;20025;-66
2021/03/31 04:34:19;;;;;;;9.70;5.18;;;13.30;86.30;;;;;;4169287;28;20096;-66
2021/03/31 04:36:19;;;;;;;8.00;4.97;;;13.20;88.70;;;;;;4170837;28;20485;-66
2021/03/31 04:38:20;;;;;;;10.18;5.88;;;13.20;85.50;;;;;;4166843;28;20329;-66
2021/03/31 04:40:22;;;;;;;10.60;5.57;;;13.20;87.60;;;;;;4169374;28;20044;-66
2021/03/31 04:42:24;;;;;;;11.00;5.47;;;13.20;86.90;;;;;;4172082;28;20033;-66
2021/03/31 04:44:24;;;;;;;10.27;5.72;;;13.20;86.90;;;;;;4167025;28;20029;-66
2021/03/31 04:46:25;;;;;;;9.32;5.70;;;13.10;88.20;;;;;;4170187;28;20083;-66
2021/03/31 04:48:26;;;;;;;12.68;6.32;;;13.10;88.50;;;;;;4170810;28;20184;-66
2021/03/31 04:50:26;;;;;;;12.98;5.90;;;13.00;87.90;;;;;;4170039;28;20128;-66
2021/03/31 04:52:29;;;;;;;13.55;4.97;;;13.00;88.90;;;;;;4169215;28;20068;-66
2021/03/31 04:54:29;;;;;;;8.57;5.43;;;13.00;88.80;;;;;;4167455;28;20033;-66
2021/03/31 04:56:30;;;;;;;10.98;5.70;;;13.00;87.20;;;;;;4167832;28;20108;-66
2021/03/31 04:58:31;;;;;;;12.52;5.72;;;13.00;88.70;;;;;;4170792;28;20029;-66
2021/03/31 05:00:32;;;;;;;16.00;6.00;;;13.00;88.90;;;;;;4170206;28;20036;-66
2021/03/31 05:02:34;;;;;;;15.52;6.10;;;13.00;89.70;;;;;;4173355;28;20032;-66
2021/03/31 05:04:35;;;;;;;14.07;6.70;;;13.00;90.10;;;;;;4171203;28;20110;-66
2021/03/31 05:06:35;;;;;;;12.85;6.03;;;13.00;90.00;;;;;;4173375;28;20045;-66
2021/03/31 05:08:36;;;;;;;11.02;6.20;;;13.00;88.40;;;;;;4172593;28;20500;-66
2021/03/31 05:10:36;;;;;;;12.55;6.65;;;13.00;90.90;;;;;;4172775;28;20495;-66
2021/03/31 05:12:37;;;;;;;12.13;6.63;;;13.00;91.10;;;;;;4167550;28;20045;-66
2021/03/31 05:14:38;;;;;;;9.95;6.40;;;13.00;91.50;;;;;;4172469;28;20043;-66
2021/03/31 05:16:38;;;;;;;9.27;6.03;;;13.10;91.00;;;;;;4173495;28;20653;-66
2021/03/31 05:18:39;;;;;;;12.60;6.57;;;13.10;93.30;;;;;;4173128;28;20029;-66
2021/03/31 05:20:40;;;;;;;11.73;6.38;;;13.10;90.70;;;;;;4174354;28;20042;-66
2021/03/31 05:22:41;;;;;;;11.55;5.95;;;13.10;91.90;;;;;;4161586;28;20048;-66
2021/03/31 05:24:42;;;;;;;10.30;5.47;;;13.10;92.20;;;;;;4172707;28;20038;-66
2021/03/31 05:26:43;;;;;;;13.30;6.35;;;13.10;92.10;;;;;;4169134;28;20033;-66
2021/03/31 05:28:44;;;;;;;10.75;6.10;;;13.10;92.40;;;;;;4174954;28;20033;-66
2021/03/31 05:30:45;;;;;;;10.48;6.30;;;13.20;91.50;;;;;;4168972;28;20064;-66
2021/03/31 05:32:45;;;;;;;13.75;6.65;;;13.10;93.30;;;;;;4166705;28;20040;-66
2021/03/31 05:34:46;;;;;;;10.35;6.03;;;13.10;92.70;;;;;;4173433;28;20041;-66
2021/03/31 05:36:47;;;;;;;9.35;5.55;;;13.00;92.00;;;;;;4172235;28;20592;-66
2021/03/31 05:38:47;;;;;;;8.60;5.50;;;13.10;91.50;;;;;;4173579;28;20060;-66
2021/03/31 05:40:48;;;;;;;10.43;5.40;;;13.10;92.20;;;;;;4160247;28;20029;-66
2021/03/31 05:42:50;;;;;;;9.25;5.15;;;12.90;93.20;;;;;;4173881;28;20075;-66
2021/03/31 05:44:51;;;;;;;12.90;5.28;;;12.90;93.30;;;;;;4169433;28;20112;-66
2021/03/31 05:46:52;;;;;;;13.75;6.35;;;12.90;95.00;;;;;;4179860;28;20043;-66
2021/03/31 05:48:54;;;;;;;11.13;5.70;;;12.90;94.10;;;;;;4177152;28;20033;-66
2021/03/31 05:50:58;;;;;;;9.23;5.45;;;12.90;95.00;;;;;;4171352;28;20126;-66
2021/03/31 05:52:59;;;;;;;13.23;6.43;;;13.00;94.20;;;;;;4170721;28;20061;-66
2021/03/31 05:55:02;;;;;;;13.50;6.38;;;13.00;96.20;;;;;;4174450;28;20040;-66
2021/03/31 05:57:04;;;;;;;10.10;6.00;;;13.00;94.60;;;;;;4171735;28;20060;-66
2021/03/31 05:59:05;;;;;;;13.23;7.15;;;13.00;94.10;;;;;;4171510;28;20037;-66
2021/03/31 06:01:06;;;;;;;12.35;6.63;;;13.10;94.50;;;;;;4172452;28;20045;-66
2021/03/31 06:03:08;;;;;;;12.05;7.18;;;13.00;95.00;;;;;;4172627;28;20033;-66
2021/03/31 06:05:10;;;;;;;16.45;8.27;;;13.10;94.10;;;;;;4171376;28;20029;-66
2021/03/31 06:07:12;;;;;;;12.15;6.95;;;13.00;94.50;;;;;;4176017;28;20044;-66
2021/03/31 06:09:12;;;;;;;12.52;6.93;;;12.90;93.90;;;;;;4181389;28;20042;-66
2021/03/31 06:11:15;;;;;;;11.95;7.35;;;13.00;94.30;;;;;;4176963;28;20428;-66
2021/03/31 06:13:16;;;;;;;11.23;6.97;;;13.00;93.50;;;;;;4175988;28;20442;-66
2021/03/31 06:15:30;;;;;;;14.45;7.80;;;13.00;93.30;;;;;;4170442;28;20044;-66
2021/03/31 06:17:48;;;;;;;12.93;7.15;;;13.00;93.50;;;;;;4170615;28;20033;-66
2021/03/31 06:19:49;;;;;;;14.70;7.85;;;13.00;92.10;;;;;;4176960;28;20456;-66
2021/03/31 06:22:48;;;;;;;17.92;7.85;;;13.00;94.00;;;;;;4173518;28;20131;-66
2021/03/31 06:24:33;;;;;;;13.35;8.32;;;13.00;92.00;;;;;;4178680;28;20044;-66
2021/03/31 06:26:39;;;;;;;16.50;9.23;;;13.10;93.00;;;;;;4182345;28;20025;-66
2021/03/31 06:28:39;;;;;;;16.38;9.60;;;13.10;92.50;;;;;;4177075;28;20048;-66
2021/03/31 06:30:40;;;;;;;15.05;8.90;;;13.10;92.30;;;;;;4174467;28;20078;-67
2021/03/31 06:32:41;;;;;;;18.63;9.93;;;13.20;92.70;;;;;;4173466;28;20041;-66
2021/03/31 06:34:57;;;;;;;19.90;9.57;;;13.20;92.50;;;;;;4173902;28;20367;-66
2021/03/31 06:37:09;;;;;;;18.17;10.50;;;13.30;92.20;;;;;;4182237;28;20083;-66
2021/03/31 06:39:17;;;;;;;16.87;9.60;;;13.30;91.00;;;;;;4178021;28;20573;-67
2021/03/31 06:41:31;;;;;;;16.38;9.30;;;13.40;91.70;;;;;;4183022;28;20282;-66
2021/03/31 06:43:40;;;;;;;21.48;9.30;;;13.40;91.30;;;;;;4185077;28;20127;-66
2021/03/31 06:45:50;;;;;;;18.38;8.95;;;13.40;90.90;;;;;;4191185;28;20048;-66
2021/03/31 06:49:52;;;;;;;14.18;8.50;;;13.50;91.30;;;;;;4190601;28;20036;-66
2021/03/31 06:52:05;;;;;;;16.20;7.78;;;13.60;91.40;;;;;;4188444;28;20447;-66
2021/03/31 06:54:20;;;;;;;19.48;8.50;;;13.60;91.10;;;;;;4192963;28;20177;-66
2021/03/31 06:56:30;;;;;;;15.07;8.20;;;13.70;89.20;;;;;;4189009;28;20040;-66
2021/03/31 06:58:33;;;;;;;16.30;8.27;;;13.70;91.10;;;;;;4178084;28;20037;-66
2021/03/31 07:00:35;;;;;;;;;;;13.70;88.20;;;;;;4185332;28;20626;-66
2021/03/31 07:02:37;;;;;;;13.18;6.85;;;13.80;91.20;;;;;;4190740;28;19916;-66
2021/03/31 07:04:38;;;;;;;13.95;7.13;;;13.80;90.00;;;;;;4190393;28;20055;-67
2021/03/31 07:06:39;;;;;;;16.20;7.93;;;13.90;91.50;;;;;;4187900;28;20753;-66
2021/03/31 07:08:40;;;;;;;15.40;7.03;;;13.90;89.50;;;;;;4185150;28;20033;-66
2021/03/31 07:10:54;;;;;;;12.63;6.82;;;13.90;88.40;;;;;;4188828;28;20075;-66
2021/03/31 07:12:55;;;;;;;16.30;7.75;;;14.00;89.80;;;;;;4187513;28;20082;-66
2021/03/31 07:14:56;;;;;;;15.70;8.07;;;14.00;86.40;;;;;;4192201;28;20029;-66
2021/03/31 07:16:58;;;;;;;15.63;7.55;;;14.10;86.70;;;;;;4187734;28;20573;-66
2021/03/31 07:18:59;;;;;;;13.35;7.22;;;14.20;86.10;;;;;;4190824;28;20040;-66
2021/03/31 07:21:00;;;;;;;14.80;7.68;;;14.20;86.40;;;;;;4191100;28;20500;-67
2021/03/31 07:23:01;;;;;;;14.90;7.47;;;14.30;88.10;;;;;;4188222;28;20115;-66
2021/03/31 07:25:04;;;;;;;16.80;7.93;;;14.40;85.30;;;;;;4190209;28;20064;-66
2021/03/31 07:27:07;;;;;;;14.13;7.80;;;14.40;85.00;;;;;;4193197;28;20073;-67
2021/03/31 07:29:10;;;;;;;14.20;7.75;;;14.50;84.90;;;;;;4191354;28;20048;-67
2021/03/31 07:31:19;;;;;;;24.15;7.78;;;14.60;84.90;;;;;;4182058;28;20112;-65
2021/03/31 07:33:25;;;;;;;17.63;7.43;;;14.60;85.70;;;;;;4187456;28;20033;-67
2021/03/31 07:35:28;;;;;;;13.90;7.50;;;14.70;85.30;;;;;;4192181;28;20090;-67
2021/03/31 07:37:32;;;;;;;19.55;8.00;;;14.80;84.60;;;;;;4190407;28;20029;-67
2021/03/31 07:39:33;;;;;;;15.73;7.85;;;14.90;83.50;;;;;;4188523;28;20047;-68
2021/03/31 07:41:37;;;;;;;15.43;7.45;;;15.00;81.70;;;;;;4181510;28;20033;-68
2021/03/31 07:43:43;;;;;;;28.25;8.73;;;15.10;81.10;;;;;;4179305;28;20033;-68
2021/03/31 07:45:48;;;;;;;15.57;7.65;;;15.20;79.90;;;;;;4190934;28;20086;-67
2021/03/31 07:47:49;;;;;;;11.32;7.03;;;15.30;82.30;;;;;;4178328;28;20390;-67
2021/03/31 07:49:50;;;;;;;11.27;6.78;;;15.40;79.60;;;;;;4179747;28;20091;-67
2021/03/31 07:52:02;;;;;;;17.10;7.47;;;15.50;81.50;;;;;;4175883;28;20045;-67
2021/03/31 07:54:04;;;;;;;14.30;7.55;;;15.60;81.50;;;;;;4180911;28;20069;-67
2021/03/31 07:56:19;;;;;;;18.88;7.53;;;15.70;80.40;;;;;;4190341;28;20028;-67
2021/03/31 07:58:24;;;;;;;16.38;7.30;;;15.80;79.80;;;;;;4175947;28;20369;-67
2021/03/31 08:02:47;;;;;;;14.40;7.97;;;16.10;76.90;;;;;;4169595;28;20041;-67
2021/03/31 08:04:48;;;;;;;12.52;7.07;;;16.20;74.60;;;;;;4181032;28;20564;-67
2021/03/31 08:06:50;;;;;;;15.23;8.20;;;16.30;74.90;;;;;;4185957;28;20032;-67
2021/03/31 08:08:51;;;;;;;16.88;8.38;;;16.40;75.40;;;;;;4189640;28;20501;-67
2021/03/31 08:10:52;;;;;;;15.75;8.18;;;16.50;76.10;;;;;;4183995;28;20033;-67
2021/03/31 08:12:53;;;;;;;22.17;7.70;;;16.70;75.40;;;;;;4183270;28;20029;-67
2021/03/31 08:14:53;;;;;;;14.52;7.75;;;16.70;73.00;;;;;;4189294;28;20045;-67
2021/03/31 08:16:57;;;;;;;17.67;7.80;;;16.80;72.00;;;;;;4189819;28;20691;-67
2021/03/31 08:18:59;;;;;;;14.32;7.72;;;16.90;71.70;;;;;;4189651;28;20084;-67
2021/03/31 08:21:00;;;;;;;14.20;7.55;;;17.10;70.30;;;;;;4187166;28;20158;-67
2021/03/31 08:23:02;;;;;;;13.30;7.30;;;17.20;70.30;;;;;;4187165;28;20036;-67
2021/03/31 08:25:14;;;;;;;11.52;6.78;;;17.30;69.30;;;;;;4190582;28;20032;-67
2021/03/31 08:27:15;;;;;;;14.30;7.28;;;17.40;68.80;;;;;;4189151;28;20411;-67
2021/03/31 08:29:19;;;;;;;13.90;7.20;;;17.50;68.60;;;;;;4183643;28;20055;-67
2021/03/31 08:31:25;;;;;;;13.13;7.35;;;17.70;68.50;;;;;;4187460;28;20041;-67
2021/03/31 08:33:26;;;;;;;15.02;7.47;;;17.80;67.00;;;;;;4190585;28;20032;-67
2021/03/31 08:35:29;;;;;;;14.48;7.50;;;17.90;66.90;;;;;;4178863;28;20364;-67
2021/03/31 08:37:30;;;;;;;;;;;18.00;66.50;;;;;;4196292;28;20496;-67
2021/03/31 08:39:31;;;;;;;11.65;6.55;;;18.20;64.60;;;;;;4188001;28;19943;-67
2021/03/31 08:41:32;;;;;;;12.88;6.63;;;18.30;64.50;;;;;;4189951;28;20029;-67
2021/03/31 08:43:33;;;;;;;12.63;7.30;;;18.30;65.10;;;;;;4190289;28;20039;-67
2021/03/31 08:45:41;;;;;;;12.60;6.93;;;18.50;62.40;;;;;;4189094;28;20438;-67
2021/03/31 08:47:43;;;;;;;18.67;8.02;;;18.70;61.30;;;;;;4190737;28;20442;-67
2021/03/31 08:49:46;;;;;;;16.80;7.63;;;18.80;62.00;;;;;;4183671;28;20775;-67
2021/03/31 08:51:50;;;;;;;12.48;6.65;;;18.90;61.10;;;;;;4188813;28;20040;-67
2021/03/31 08:53:51;;;;;;;12.52;7.30;;;19.00;60.40;;;;;;4189613;28;20072;-67
2021/03/31 08:55:52;;;;;;;19.20;7.53;;;19.10;60.50;;;;;;4189877;28;20029;-67
2021/03/31 08:57:52;;;;;;;10.48;6.03;;;19.30;59.20;;;;;;4189235;28;20546;-67
2021/03/31 08:59:57;;;;;;;19.35;7.22;;;19.30;59.30;;;;;;4188079;28;20032;-67
2021/03/31 09:01:58;;;;;;;15.13;7.70;;;19.40;59.50;;;;;;4182315;28;20033;-67
2021/03/31 09:04:16;;;;;;;19.13;8.02;;;19.60;58.80;;;;;;4177379;28;20356;-67
2021/03/31 09:06:20;;;;;;;13.50;7.43;;;19.70;58.70;;;;;;4185075;28;20036;-67
2021/03/31 09:08:22;;;;;;;13.38;6.10;;;19.80;58.70;;;;;;4185100;28;20052;-67
2021/03/31 09:10:23;;;;;;;10.43;5.82;;;20.00;58.20;;;;;;4188955;28;20037;-67
2021/03/31 09:12:29;;;;;;;13.95;6.25;;;20.10;58.10;;;;;;4189794;28;20653;-67
2021/03/31 09:14:30;;;;;;;12.45;6.50;;;20.30;57.20;;;;;;4182516;28;20033;-67
2021/03/31 09:16:31;;;;;;;12.75;6.82;;;20.40;56.30;;;;;;4190964;28;20035;-67
2021/03/31 09:18:32;;;;;;;17.08;6.50;;;20.50;56.20;;;;;;4187053;28;20127;-65
2021/03/31 09:20:32;;;;;;;13.00;6.63;;;20.50;56.10;;;;;;4188925;28;20423;-65
2021/03/31 09:22:36;;;;;;;10.68;6.60;;;20.60;55.40;;;;;;4188746;28;20048;-65
2021/03/31 09:24:42;;;;;;;12.57;6.55;;;20.70;55.90;;;;;;4181170;28;20117;-65
2021/03/31 09:26:57;;;;;;;11.85;6.75;;;20.80;55.20;;;;;;4183758;28;20086;-65
2021/03/31 09:28:58;;;;;;;12.13;6.18;;;20.90;54.80;;;;;;4180663;28;20534;-65
2021/03/31 09:31:12;;;;;;;11.75;6.35;;;21.00;55.30;;;;;;4183654;28;20033;-64
2021/03/31 09:33:15;;;;;;;12.10;6.00;;;21.10;55.20;;;;;;4186510;28;20568;-64
2021/03/31 09:35:17;;;;;;;9.52;5.90;;;21.20;54.00;;;;;;4188208;28;20781;-65
2021/03/31 09:37:21;;;;;;;10.52;5.97;;;21.30;53.30;;;;;;4189920;28;20033;-65
2021/03/31 09:39:21;;;;;;;9.57;5.18;;;21.40;53.10;;;;;;4177408;28;20056;-65
2021/03/31 09:41:22;;;;;;;10.30;5.72;;;21.40;53.40;;;;;;4183875;28;20369;-65
2021/03/31 09:43:24;;;;;;;10.77;5.55;;;21.50;51.50;;;;;;4176942;28;20052;-65
2021/03/31 09:45:27;;;;;;;10.80;5.70;;;21.60;52.10;;;;;;4181013;28;20041;-65
2021/03/31 09:47:33;;;;;;;10.88;6.32;;;21.70;51.50;;;;;;4179082;28;20033;-64
2021/03/31 09:49:35;;;;;;;11.30;5.40;;;21.80;50.80;;;;;;4174882;28;20033;-65
2021/03/31 09:51:36;;;;;;;8.60;5.50;;;21.80;48.90;;;;;;4189443;28;20063;-65
2021/03/31 09:53:37;;;;;;;10.40;5.65;;;21.90;49.40;;;;;;4192776;28;20032;-65
2021/03/31 09:55:38;;;;;;;9.57;5.80;;;21.90;49.10;;;;;;4194944;28;20386;-65
2021/03/31 09:57:41;;;;;;;12.35;5.80;;;22.00;48.90;;;;;;4194751;28;20075;-65
2021/03/31 09:59:41;;;;;;;;;;;22.00;49.50;;;;;;4206254;28;20051;-65
2021/03/31 10:01:42;;;;;;;6.97;4.63;;;22.10;49.70;;;;;;4193144;28;19917;-65
2021/03/31 10:03:45;;;;;;;7.88;5.10;;;22.20;45.70;;;;;;4202137;28;20071;-65
2021/03/31 10:05:46;;;;;;;;;;;22.20;47.10;;;;;;4200649;28;20139;-65
2021/03/31 10:08:00;;;;;;;12.75;6.38;;;22.30;47.50;;;;;;4193569;28;19960;-65
2021/03/31 10:10:02;;;;;;;11.95;6.22;;;22.40;46.90;;;;;;4195238;28;20032;-65
2021/03/31 10:12:03;;;;;;;10.07;5.57;;;22.40;46.90;;;;;;4196780;28;20036;-65
2021/03/31 10:14:05;;;;;;;12.02;5.32;;;22.50;46.40;;;;;;4203895;28;20390;-65
2021/03/31 10:16:06;;;;;;;11.07;5.60;;;22.60;46.70;;;;;;4201088;28;20039;-65
2021/03/31 10:18:08;;;;;;;7.38;5.10;;;22.60;46.30;;;;;;4202555;28;20032;-65
2021/03/31 10:20:12;;;;;;;9.80;5.00;;;22.70;45.10;;;;;;4203065;28;20043;-65
2021/03/31 10:22:14;;;;;;;9.35;5.47;;;22.80;44.90;;;;;;4203626;28;20732;-65
2021/03/31 10:24:34;;;;;;;9.90;4.75;;;22.80;46.30;;;;;;4193504;28;20033;-64
2021/03/31 10:26:37;;;;;;;8.07;4.90;;;22.80;45.20;;;;;;4183967;28;20036;-65
2021/03/31 10:28:39;;;;;;;7.03;4.15;;;22.90;44.40;;;;;;4162792;28;20033;-65
2021/03/31 10:30:39;;;;;;;8.63;5.35;;;22.90;44.20;;;;;;4187895;28;20041;-65
2021/03/31 10:32:40;;;;;;;8.40;4.95;;;23.00;43.80;;;;;;4188775;28;20055;-65
2021/03/31 10:34:44;;;;;;;14.45;5.28;;;23.00;43.40;;;;;;4184823;28;20060;-65
2021/03/31 10:53:32;;;;;;;;;;;23.40;44.60;;;;;;4192144;28;20040;-65
2021/03/31 10:55:32;;;;;;;5.82;3.90;;;23.40;44.00;;;;;;4183930;28;19908;-65
2021/03/31 10:57:33;;;;;;;7.65;4.63;;;23.40;42.40;;;;;;4186975;28;20538;-65
2021/03/31 10:59:36;;;;;;;7.05;3.95;;;23.40;43.00;;;;;;4185480;28;20033;-65